WetterOnline ( https://www.wetteronline.de )

Wetter aktuell Putbus

Aktuelles Wetter: Putbus/Rügen (41m)

6-stündlich | Neueste Meldungen
Ortszeit Temperatur Wetter
Mo, 03.10. 2:00 11.8° C bewölkt
So, 02.10. 20:00 10.0° C wolkenlos
So, 02.10. 14:00 14.9° C leicht bewölkt
So, 02.10. 8:00 10.0° C leicht bewölkt
So, 02.10. 2:00 11.7° C bewölkt
Sa, 01.10. 20:00 11.5° C wolkig
Sa, 01.10. 14:00 11.0° C leichter Regen
Sa, 01.10. 8:00 9.8° C bedeckt
Ortszeit Temperatur Wetter
Mo, 03.10. 4:30 11.5° C wolkig
Mo, 03.10. 4:20 11.5° C wolkig
Mo, 03.10. 4:10 11.4° C bewölkt
Mo, 03.10. 4:00 11.5° C bewölkt
Mo, 03.10. 3:50 11.5° C bewölkt
Mo, 03.10. 3:40 11.5° C bewölkt
Mo, 03.10. 3:30 11.5° C bewölkt
Mo, 03.10. 3:00 11.8° C bewölkt
Mo, 03.10. 2:30 11.8° C bewölkt
Mo, 03.10. 2:00 11.8° C bewölkt
Mo, 03.10. 1:30 12.0° C bewölkt
Ortszeit Relative Feuchte Sichtweite
Mo, 03.10. 2:00 87% 40 km
So, 02.10. 20:00 95% 29 km
So, 02.10. 14:00 76% 60 km
So, 02.10. 8:00 93% 35 km
So, 02.10. 2:00 95% 27 km
Sa, 01.10. 20:00 95% 35 km
Sa, 01.10. 14:00 86% 17 km
Sa, 01.10. 8:00 81% 45 km
Ortszeit Relative Feuchte Sichtweite
Mo, 03.10. 4:30 89% 35 km
Mo, 03.10. 4:20 89% -
Mo, 03.10. 4:10 89% -
Mo, 03.10. 4:00 88% 40 km
Mo, 03.10. 3:50 88% -
Mo, 03.10. 3:40 88% -
Mo, 03.10. 3:30 88% 40 km
Mo, 03.10. 3:00 86% 40 km
Mo, 03.10. 2:30 86% 40 km
Mo, 03.10. 2:00 87% 40 km
Mo, 03.10. 1:30 88% 35 km
Ortszeit Niederschlagsmenge Niederschlagsart
Mo, 03.10. 2:00 0.0 l/m2 in 6 Std. -
So, 02.10. 20:00 5 l/m2 in 12 Std. Regen
So, 02.10. 14:00 0.1 l/m2 in 6 Std. Regen
So, 02.10. 8:00 0.6 l/m2 in 12 Std. Regen
So, 02.10. 2:00 0.6 l/m2 in 6 Std. Regen
Sa, 01.10. 20:00 2 l/m2 in 12 Std. Regen
Sa, 01.10. 14:00 0.5 l/m2 in 6 Std. Regen
Sa, 01.10. 8:00 0.0 l/m2 in 12 Std. -
Ortszeit Niederschlagsmenge Niederschlagsart
Mo, 03.10. 4:30 0.0 l/m2 in 1 Std. -
Mo, 03.10. 4:20 keine Meldung -
Mo, 03.10. 4:10 keine Meldung -
Mo, 03.10. 4:00 0.0 l/m2 in 1 Std. -
Mo, 03.10. 3:50 keine Meldung -
Mo, 03.10. 3:40 keine Meldung -
Mo, 03.10. 3:30 0.0 l/m2 in 1 Std. -
Mo, 03.10. 3:00 0.0 l/m2 in 1 Std. -
Mo, 03.10. 2:30 0.0 l/m2 in 1 Std. -
Mo, 03.10. 2:00 0.0 l/m2 in 1 Std. -
Mo, 03.10. 1:30 0.0 l/m2 in 1 Std. -
Ortszeit Stärke Spitze Richtung
km/h Bft. km/h Grad Sektor
Mo, 03.10. 2:00 18 3 43 300° NW
So, 02.10. 20:00 14 3 104 260° W
So, 02.10. 14:00 32 5 61 270° W
So, 02.10. 8:00 19 3 37 250° W
So, 02.10. 2:00 17 3 37 250° W
Sa, 01.10. 20:00 17 3 39 240° SW
Sa, 01.10. 14:00 18 3 36 190° S
Sa, 01.10. 8:00 13 3 28 180° S
Ortszeit Stärke Spitze Richtung
km/h Bft. km/h Grad Sektor
Mo, 03.10. 4:30 22 4 32 290° W
Mo, 03.10. 4:20 22 4 - 290° W
Mo, 03.10. 4:10 22 4 - 300° NW
Mo, 03.10. 4:00 19 3 39 300° NW
Mo, 03.10. 3:50 19 3 - 300° NW
Mo, 03.10. 3:40 19 3 - 300° NW
Mo, 03.10. 3:30 20 4 39 300° NW
Mo, 03.10. 3:00 20 4 39 300° NW
Mo, 03.10. 2:30 22 4 40 300° NW
Mo, 03.10. 2:00 18 3 43 300° NW
Mo, 03.10. 1:30 25 4 43 300° NW
Ortszeit Untergrenze Bedeckung Gattung
total tief tief mittel hoch
Mo, 03.10. 2:00 540 m 7/8 7/8 - - -
So, 02.10. 20:00 - 0/8 0/8 - - -
So, 02.10. 14:00 540 m 3/8 1/8 - - -
So, 02.10. 8:00 510 m 3/8 3/8 - - -
So, 02.10. 2:00 240 m 7/8 7/8 - - -
Sa, 01.10. 20:00 390 m 6/8 5/8 - - -
Sa, 01.10. 14:00 600 m 8/8 8/8 - - -
Sa, 01.10. 8:00 5700 m 8/8 8/8 - - -
Ortszeit Bedeckungsgrad in Achtel und Wolkenuntergrenze
Mo, 03.10. 4:30 6(420m)
Mo, 03.10. 4:20 6(420m)
Mo, 03.10. 4:10 7
Mo, 03.10. 4:00 7(480m)
Mo, 03.10. 3:50 7(480m)
Mo, 03.10. 3:40 7
Mo, 03.10. 3:30 7(510m)
Mo, 03.10. 3:00 7(510m) 7(660m)
Mo, 03.10. 2:30 7(540m)
Mo, 03.10. 2:00 7(540m)
Mo, 03.10. 1:30 7(510m) 7(690m)
Ortszeit Luftdruck NN (hPa) Tendenz (hPa in 3 Std.)
Mo, 03.10. 2:00 1014 + 1,2
So, 02.10. 20:00 1012 + 1,5
So, 02.10. 14:00 1009 + 0,5
So, 02.10. 8:00 1008 + 1,0
So, 02.10. 2:00 1006 + 2,1
Sa, 01.10. 20:00 1001 + 0,7
Sa, 01.10. 14:00 1002 - 2,0
Sa, 01.10. 8:00 1006 - 1,7
Ortszeit Luftdruck NN (hPa) Tendenz (hPa in 3 Std.)
Mo, 03.10. 4:30 1016 + 1,4
Mo, 03.10. 4:20 1016 keine Meldung
Mo, 03.10. 4:10 1015 keine Meldung
Mo, 03.10. 4:00 1015 + 1,3
Mo, 03.10. 3:50 1015 keine Meldung
Mo, 03.10. 3:40 1015 keine Meldung
Mo, 03.10. 3:30 1015 + 1,3
Mo, 03.10. 3:00 1015 + 1,4
Mo, 03.10. 2:30 1015 + 1,3
Mo, 03.10. 2:00 1014 + 1,2
Mo, 03.10. 1:30 1014 + 1,3
Ortszeit Schneehöhe (cm)
Mo, 03.10. 2:00 0
So, 02.10. 20:00 0
So, 02.10. 14:00 0
So, 02.10. 8:00 0
So, 02.10. 2:00 0
Sa, 01.10. 20:00 0
Sa, 01.10. 14:00 0
Sa, 01.10. 8:00 0
Ortszeit Schneehöhe (cm)
Mo, 03.10. 4:30 0
Mo, 03.10. 4:20 0
Mo, 03.10. 4:10 0
Mo, 03.10. 4:00 0
Mo, 03.10. 3:50 0
Mo, 03.10. 3:40 0
Mo, 03.10. 3:30 0
Mo, 03.10. 3:00 0
Mo, 03.10. 2:30 0
Mo, 03.10. 2:00 0
Mo, 03.10. 1:30 0
Link zu dieser Seite / Seite empfehlen

Das Wetter in ...